Time;durP1;ratioP1;P1;durP2;ratioP2;P2;SDS_P1;SDS_P2;PMS_P1;PMS_P2;Temp;Humidity;BMP_temperature;BMP_pressure;BME280_temperature;BME280_humidity;BME280_pressure;Samples;Min_cycle;Max_cycle;Signal;HPM_P1;HPM_P2
2022/08/29 00:00:18;;;;;;;4.22;1.70;;;;;;;23.75;41.76;102118.81;4974868;28;20030;-73
2022/08/29 00:02:50;;;;;;;4.53;1.85;;;;;;;23.75;42.05;102118.81;4975848;28;20094;-68
2022/08/29 00:05:19;;;;;;;4.90;1.85;;;;;;;23.74;41.87;102125.97;4972440;28;20058;-68
2022/08/29 00:07:44;;;;;;;4.22;1.85;;;;;;;23.72;41.99;102125.28;4976843;28;20118;-73
2022/08/29 00:10:10;;;;;;;5.07;2.00;;;;;;;23.71;41.60;102127.06;4975544;28;20080;-67
2022/08/29 00:12:36;;;;;;;5.05;1.63;;;;;;;23.70;41.97;102127.19;4964570;28;20149;-68
2022/08/29 00:15:03;;;;;;;5.63;2.35;;;;;;;23.66;41.91;102129.28;4974290;28;20037;-68
2022/08/29 00:17:29;;;;;;;4.88;2.10;;;;;;;23.68;41.72;102123.84;4969231;28;20030;-68
2022/08/29 00:19:54;;;;;;;3.97;1.70;;;;;;;23.68;42.02;102127.31;4971019;28;20034;-68
2022/08/29 00:22:19;;;;;;;5.72;1.75;;;;;;;23.65;42.24;102116.94;4983325;28;20339;-68
2022/08/29 00:24:44;;;;;;;4.78;1.90;;;;;;;23.66;42.31;102121.31;4964887;28;20042;-70
2022/08/29 00:27:10;;;;;;;4.93;2.13;;;;;;;23.66;42.02;102121.31;4979000;28;20268;-69
2022/08/29 00:29:35;;;;;;;4.97;2.08;;;;;;;23.62;41.97;102116.38;4975679;28;20278;-71
2022/08/29 00:32:01;;;;;;;5.82;2.10;;;;;;;23.64;42.06;102117.06;4983343;28;20046;-69
2022/08/29 00:34:26;;;;;;;4.30;2.35;;;;;;;23.59;41.83;102117.50;4983352;28;21222;-68
2022/08/29 00:36:52;;;;;;;4.87;2.07;;;;;;;23.61;42.28;102120.03;4973518;28;20531;-68
2022/08/29 00:39:17;;;;;;;5.20;2.38;;;;;;;23.61;42.18;102122.69;4971519;28;20275;-68
2022/08/29 00:41:42;;;;;;;5.97;2.45;;;;;;;23.54;41.95;102117.00;4977400;28;20526;-69
2022/08/29 00:44:07;;;;;;;6.30;2.30;;;;;;;23.53;42.24;102118.84;4982123;28;20030;-68
2022/08/29 00:46:45;;;;;;;5.25;2.50;;;;;;;23.54;42.01;102125.00;4965793;28;20054;-70
2022/08/29 00:49:32;;;;;;;5.50;2.33;;;;;;;23.53;41.93;102118.84;4962146;28;20041;-71
2022/08/29 00:52:04;;;;;;;5.82;2.30;;;;;;;23.55;42.02;102126.69;4963832;28;20038;-68
2022/08/29 00:54:30;;;;;;;5.40;2.75;;;;;;;23.53;42.26;102126.00;4963670;28;20387;-69
2022/08/29 00:56:57;;;;;;;5.03;2.60;;;;;;;23.52;42.10;102125.13;4963744;28;20387;-69
2022/08/29 00:59:27;;;;;;;6.32;3.20;;;;;;;23.53;42.12;102128.66;4963765;28;20031;-68
2022/08/29 01:01:52;;;;;;;6.63;2.92;;;;;;;23.53;42.03;102128.66;4980973;28;20124;-67
2022/08/29 01:04:18;;;;;;;6.32;3.42;;;;;;;23.51;42.33;102134.09;4982336;28;20419;-67
2022/08/29 01:06:44;;;;;;;8.68;3.00;;;;;;;23.49;42.44;102122.72;4972408;28;20081;-70
2022/08/29 01:09:10;;;;;;;6.03;3.28;;;;;;;23.48;42.45;102126.38;4963377;28;20249;-67
2022/08/29 01:14:23;;;;;;;6.75;3.20;;;;;;;23.46;42.06;102127.47;4970084;28;20486;-69
2022/08/29 01:16:51;;;;;;;6.78;3.22;;;;;;;23.44;42.41;102130.25;4974143;28;20034;-69
2022/08/29 01:19:25;;;;;;;6.38;3.55;;;;;;;23.47;42.33;102139.81;4972523;28;20577;-68
2022/08/29 01:21:58;;;;;;;7.10;3.33;;;;;;;23.44;42.28;102130.25;4982806;28;20476;-68
2022/08/29 01:24:42;;;;;;;6.35;3.42;;;;;;;23.42;42.28;102137.53;4967651;28;20026;-67
2022/08/29 01:27:10;;;;;;;6.60;3.47;;;;;;;23.37;42.39;102129.09;4974909;28;20526;-69
2022/08/29 01:29:35;;;;;;;7.53;3.72;;;;;;;23.37;42.20;102131.75;4982553;28;20052;-68
2022/08/29 01:32:01;;;;;;;7.22;3.17;;;;;;;23.36;42.17;102128.22;4970625;28;20031;-70
2022/08/29 01:34:27;;;;;;;8.68;3.90;;;;;;;23.35;42.53;102123.03;4963013;28;20043;-68
2022/08/29 01:36:56;;;;;;;7.75;3.90;;;;;;;23.38;42.39;102137.91;4963050;28;20432;-68
2022/08/29 01:39:25;;;;;;;6.63;3.58;;;;;;;23.34;42.51;102127.53;4965342;28;20035;-68
2022/08/29 01:41:51;;;;;;;6.35;3.20;;;;;;;23.25;42.13;102098.19;4963373;28;20479;-69
2022/08/29 01:44:19;;;;;;;7.82;3.60;;;;;;;23.31;42.53;102108.31;4966026;28;20034;-68
2022/08/29 01:46:47;;;;;;;8.00;3.80;;;;;;;23.33;42.13;102120.50;4981340;28;21225;-68
2022/08/29 01:49:15;;;;;;;7.78;3.70;;;;;;;23.29;42.49;102113.78;4965454;28;20034;-68
2022/08/29 01:51:40;;;;;;;7.63;3.70;;;;;;;23.31;42.23;102127.78;4969898;28;20378;-69
2022/08/29 01:54:07;;;;;;;7.63;3.90;;;;;;;23.28;42.63;102119.22;4978455;28;20038;-68
2022/08/29 01:56:35;;;;;;;8.73;3.97;;;;;;;23.28;42.22;102121.88;4971076;28;20029;-69
2022/08/29 01:59:04;;;;;;;7.38;4.05;;;;;;;23.25;42.44;102116.81;4975568;28;20031;-69
2022/08/29 02:01:38;;;;;;;7.43;3.90;;;;;;;23.24;42.24;102123.97;4968361;28;20031;-68
2022/08/29 02:04:05;;;;;;;7.72;3.97;;;;;;;23.26;42.42;102126.50;4966875;28;20064;-70
2022/08/29 02:06:31;;;;;;;6.70;4.30;;;;;;;23.25;42.63;102128.28;4962542;28;20054;-69
2022/08/29 02:08:57;;;;;;;9.88;4.50;;;;;;;23.25;42.40;102136.25;4973036;28;20052;-67
2022/08/29 02:11:23;;;;;;;7.90;4.40;;;;;;;23.20;42.33;102119.03;4976969;28;20093;-69
2022/08/29 02:13:54;;;;;;;7.38;4.10;;;;;;;23.20;42.27;102122.50;4973656;28;20030;-69
2022/08/29 02:16:20;;;;;;;9.20;4.35;;;;;;;23.20;42.30;102117.19;4965563;28;20530;-68
2022/08/29 02:18:46;;;;;;;7.35;3.88;;;;;;;23.21;42.30;102128.66;4970499;28;20034;-67
2022/08/29 02:21:13;;;;;;;8.63;4.65;;;;;;;23.18;42.70;102129.78;4971920;28;20038;-67
2022/08/29 02:23:39;;;;;;;7.13;4.22;;;;;;;23.18;42.36;102135.09;4971812;28;20031;-70
2022/08/29 02:26:05;;;;;;;6.53;3.88;;;;;;;23.18;42.63;102138.59;4970533;28;20030;-71
2022/08/29 02:28:31;;;;;;;8.98;4.72;;;;;;;23.15;42.19;102125.56;4970354;28;20102;-67
2022/08/29 02:30:56;;;;;;;11.13;5.13;;;;;;;23.13;42.37;102132.81;4975274;28;20061;-68
2022/08/29 02:33:22;;;;;;;8.10;4.57;;;;;;;23.14;42.74;102136.31;4971712;28;20073;-68
2022/08/29 02:35:47;;;;;;;9.80;5.30;;;;;;;23.13;42.42;102145.25;4969235;28;20477;-68
2022/08/29 02:38:14;;;;;;;8.38;4.63;;;;;;;23.11;42.72;102142.72;4973401;28;20460;-68
2022/08/29 02:40:41;;;;;;;9.20;5.03;;;;;;;23.14;42.69;102146.94;4966523;28;20438;-67
2022/08/29 02:43:06;;;;;;;8.48;4.80;;;;;;;23.12;42.37;102146.25;4971734;28;20027;-68
2022/08/29 02:45:34;;;;;;;9.38;5.18;;;;;;;23.07;42.42;102141.28;4987370;28;20030;-67
2022/08/29 02:47:59;;;;;;;9.13;5.28;;;;;;;23.04;42.73;102141.53;4968661;28;20122;-68
2022/08/29 02:50:25;;;;;;;8.17;5.40;;;;;;;23.06;42.80;102136.91;4972804;28;20121;-68
2022/08/29 02:52:51;;;;;;;9.45;4.85;;;;;;;23.08;42.66;102150.09;4966996;28;20273;-66
2022/08/29 02:55:18;;;;;;;7.60;5.18;;;;;;;23.06;42.52;102146.72;4974654;28;20446;-67
2022/08/29 02:57:44;;;;;;;10.32;6.57;;;;;;;23.05;42.43;102145.00;4977155;28;20118;-69
2022/08/29 03:00:18;;;;;;;10.65;5.80;;;;;;;23.06;42.34;102142.22;4975471;28;20454;-66
2022/08/29 03:02:46;;;;;;;;;;;;;;;23.07;42.72;102148.41;4977807;28;20030;-68
2022/08/29 03:05:13;;;;;;;10.80;5.45;;;;;;;22.97;42.48;102135.00;4978783;28;19925;-67
2022/08/29 03:07:38;;;;;;;11.02;6.00;;;;;;;23.04;42.62;102141.53;4973813;28;20455;-67
2022/08/29 03:10:04;;;;;;;10.10;5.82;;;;;;;23.03;42.87;102141.66;4977552;28;20045;-71
2022/08/29 03:12:31;;;;;;;10.38;5.18;;;;;;;23.04;42.56;102146.00;4977752;28;20066;-68
2022/08/29 03:14:57;;;;;;;8.80;4.85;;;;;;;23.04;42.44;102146.00;4979379;28;20039;-67
2022/08/29 03:17:23;;;;;;;10.13;5.15;;;;;;;22.97;42.38;102138.53;4978077;28;20093;-68
2022/08/29 03:19:48;;;;;;;7.75;4.75;;;;;;;22.99;42.67;102138.41;4975321;28;20030;-67
2022/08/29 03:22:14;;;;;;;8.73;5.10;;;;;;;23.04;42.14;102144.19;4969173;28;20030;-71
2022/08/29 03:24:39;;;;;;;7.53;4.07;;;;;;;22.99;42.71;102136.56;4978666;28;20034;-67
2022/08/29 03:27:05;;;;;;;9.00;5.10;;;;;;;22.99;42.21;102131.25;4981508;28;20033;-66
2022/08/29 03:29:31;;;;;;;9.43;4.53;;;;;;;22.97;42.38;102130.56;4975505;28;20066;-68
2022/08/29 03:31:57;;;;;;;8.50;4.32;;;;;;;22.99;42.54;102133.09;4969746;28;20109;-69
2022/08/29 03:34:27;;;;;;;8.02;4.30;;;;;;;22.97;42.39;102129.69;4976024;28;21182;-67
2022/08/29 03:36:53;;;;;;;7.47;4.20;;;;;;;22.97;42.48;102125.22;4973528;28;20074;-70
2022/08/29 03:39:18;;;;;;;8.82;4.45;;;;;;;22.91;42.81;102116.94;4976446;28;20038;-69
2022/08/29 03:41:44;;;;;;;7.85;3.80;;;;;;;22.93;42.42;102115.81;4981389;28;20030;-66
2022/08/29 03:44:09;;;;;;;8.55;4.00;;;;;;;22.92;42.68;102110.63;4977197;28;20026;-67
2022/08/29 03:46:36;;;;;;;6.70;3.93;;;;;;;22.96;42.59;102104.09;4972565;28;20058;-70
2022/08/29 03:49:02;;;;;;;8.25;4.13;;;;;;;22.92;42.50;102094.66;4968084;28;20296;-71
2022/08/29 03:51:30;;;;;;;6.40;3.65;;;;;;;22.93;42.50;102096.38;4980804;28;20030;-67
2022/08/29 03:53:56;;;;;;;7.70;3.85;;;;;;;22.92;42.72;102103.50;4982426;28;20034;-67
2022/08/29 03:56:22;;;;;;;10.25;4.10;;;;;;;22.91;42.79;102095.66;4971784;28;20030;-67
2022/08/29 03:58:47;;;;;;;9.48;4.60;;;;;;;22.90;42.77;102093.97;4977535;28;20034;-68
2022/08/29 04:01:13;;;;;;;8.48;4.80;;;;;;;22.88;42.65;102096.75;4973414;28;20049;-70
2022/08/29 04:03:39;;;;;;;9.88;5.45;;;;;;;22.81;42.62;102083.13;4971942;28;20451;-68
2022/08/29 04:06:04;;;;;;;10.07;5.73;;;;;;;22.91;42.87;102087.69;4975291;28;20038;-69
2022/08/29 04:08:29;;;;;;;9.40;5.50;;;;;;;22.90;42.75;102089.47;4983407;28;20710;-68
2022/08/29 04:10:55;;;;;;;11.47;5.77;;;;;;;22.92;43.14;102097.31;4968901;28;20039;-72
2022/08/29 04:13:20;;;;;;;12.33;6.13;;;;;;;22.88;42.65;102094.09;4976924;28;20322;-67
2022/08/29 04:15:45;;;;;;;12.07;6.55;;;;;;;22.90;42.36;102102.75;4972388;28;21105;-70
2022/08/29 04:18:11;;;;;;;12.27;5.77;;;;;;;22.90;42.52;102109.91;4969572;28;20045;-68
2022/08/29 04:20:41;;;;;;;13.43;6.50;;;;;;;22.90;42.75;102109.91;4974393;28;20288;-70
2022/08/29 04:23:11;;;;;;;11.63;5.82;;;;;;;22.89;42.96;102114.38;4975422;28;20257;-68
2022/08/29 04:25:37;;;;;;;11.57;6.40;;;;;;;22.90;42.65;102115.22;4969560;28;20035;-68
2022/08/29 04:28:05;;;;;;;10.00;5.50;;;;;;;22.87;42.58;102110.16;4978954;28;20471;-66
2022/08/29 04:30:31;;;;;;;11.98;5.55;;;;;;;22.87;42.92;102111.00;4965112;28;20031;-72
2022/08/29 04:32:56;;;;;;;10.50;5.68;;;;;;;22.89;42.63;102117.06;4971770;28;20105;-68
2022/08/29 04:35:22;;;;;;;11.82;6.10;;;;;;;22.85;42.73;102114.75;4977579;28;20038;-68
2022/08/29 04:37:48;;;;;;;9.50;6.18;;;;;;;22.89;42.49;102124.16;4974981;28;20574;-67
2022/08/29 04:40:17;;;;;;;11.73;5.60;;;;;;;22.88;42.88;102120.66;4977273;28;20077;-67
2022/08/29 04:42:42;;;;;;;10.30;5.90;;;;;;;22.83;42.77;102113.06;4968949;28;20038;-67
2022/08/29 04:45:13;;;;;;;8.82;5.28;;;;;;;22.86;42.47;102122.63;4983005;28;20038;-71
2022/08/29 04:47:40;;;;;;;9.65;5.63;;;;;;;22.87;42.79;102121.63;4982975;28;20656;-68
2022/08/29 04:50:07;;;;;;;10.55;6.13;;;;;;;22.83;42.66;102117.53;4967297;28;20034;-68
2022/08/29 04:52:32;;;;;;;10.85;5.82;;;;;;;22.85;42.59;102122.75;4974483;28;20022;-68
2022/08/29 04:54:58;;;;;;;9.95;5.30;;;;;;;22.84;43.00;102121.88;4976666;28;20034;-68
2022/08/29 04:57:23;;;;;;;9.00;5.45;;;;;;;22.80;42.25;102120.44;4973508;28;20034;-68
2022/08/29 04:59:53;;;;;;;10.40;5.32;;;;;;;22.79;42.66;102124.91;4974171;28;20048;-69
2022/08/29 05:02:19;;;;;;;10.30;5.60;;;;;;;22.79;42.47;102122.25;4964170;28;20118;-70
2022/08/29 05:04:46;;;;;;;8.80;4.68;;;;;;;22.79;42.80;102121.41;4963854;28;20125;-67
2022/08/29 05:07:11;;;;;;;11.07;6.00;;;;;;;22.77;42.46;102118.88;4970238;28;20221;-68
2022/08/29 05:09:36;;;;;;;9.47;4.97;;;;;;;22.81;42.50;102128.31;4972244;28;20468;-66
2022/08/29 05:12:02;;;;;;;8.77;4.95;;;;;;;22.78;42.93;102111.75;4962004;28;20264;-69
2022/08/29 05:14:27;;;;;;;9.55;4.75;;;;;;;22.73;42.66;102109.47;4975096;28;20034;-67
2022/08/29 05:16:53;;;;;;;8.87;5.07;;;;;;;22.75;42.81;102118.16;4964858;28;20046;-68
2022/08/29 05:19:18;;;;;;;9.13;5.23;;;;;;;22.77;42.42;102129.50;4964999;28;20288;-67
2022/08/29 05:21:43;;;;;;;8.68;4.72;;;;;;;22.75;42.58;102126.13;4966968;28;20264;-67
2022/08/29 05:24:11;;;;;;;10.32;4.75;;;;;;;22.76;43.04;102142.91;4967929;28;20105;-66
2022/08/29 05:26:43;;;;;;;8.20;4.60;;;;;;;22.74;42.72;102144.88;4967280;28;20035;-67
2022/08/29 05:29:10;;;;;;;9.82;4.80;;;;;;;22.75;42.53;102141.25;4972207;28;20054;-69
2022/08/29 05:31:39;;;;;;;8.60;4.82;;;;;;;22.77;42.76;102148.09;4976595;28;20046;-72
2022/08/29 05:34:05;;;;;;;8.00;4.65;;;;;;;22.76;42.61;102151.72;4974882;28;20022;-69
2022/08/29 05:36:32;;;;;;;8.18;4.20;;;;;;;22.77;42.76;102153.41;4976175;28;20101;-67
2022/08/29 05:38:59;;;;;;;8.63;4.50;;;;;;;22.78;42.81;102155.13;4972678;28;20038;-67
2022/08/29 05:41:25;;;;;;;8.57;4.63;;;;;;;22.76;42.92;102154.38;4971373;28;20030;-69
2022/08/29 05:43:50;;;;;;;6.82;4.20;;;;;;;22.78;42.62;102156.91;4972972;28;20486;-67
2022/08/29 05:46:15;;;;;;;6.63;3.70;;;;;;;22.78;43.08;102159.56;4976185;28;20201;-69
2022/08/29 05:48:41;;;;;;;8.93;4.32;;;;;;;22.75;42.96;102152.72;4975185;28;20038;-67
2022/08/29 05:51:13;;;;;;;8.57;4.38;;;;;;;22.77;43.08;102155.25;4976618;28;20060;-66
2022/08/29 05:53:38;;;;;;;8.52;4.10;;;;;;;22.76;42.96;102159.69;4968173;28;20371;-67
2022/08/29 05:56:03;;;;;;;7.63;4.17;;;;;;;22.75;42.69;102151.88;4968644;28;20030;-71
2022/08/29 05:58:28;;;;;;;9.10;3.90;;;;;;;22.78;43.03;102155.13;4971197;28;20282;-68
2022/08/29 06:00:54;;;;;;;8.53;3.87;;;;;;;22.72;43.26;102157.44;4967966;28;20034;-67
2022/08/29 06:03:19;;;;;;;9.30;4.30;;;;;;;22.69;42.94;102163.00;4963462;28;20578;-67
2022/08/29 06:05:50;;;;;;;7.63;3.83;;;;;;;22.69;43.12;102163.84;4976505;28;20329;-67
2022/08/29 06:08:15;;;;;;;6.50;3.42;;;;;;;22.75;43.64;102171.31;4976262;28;20026;-71
2022/08/29 06:10:43;;;;;;;8.27;4.07;;;;;;;22.75;43.96;102157.19;4971646;28;20030;-68
2022/08/29 06:13:09;;;;;;;9.35;4.32;;;;;;;22.81;43.93;102169.97;4975947;28;20037;-68
2022/08/29 06:15:34;;;;;;;8.23;3.70;;;;;;;22.80;43.81;102174.44;4965724;28;20393;-68
2022/08/29 06:17:59;;;;;;;8.80;3.63;;;;;;;22.79;44.25;102171.91;4971003;28;20043;-69
2022/08/29 06:20:25;;;;;;;7.27;3.17;;;;;;;22.80;43.87;102182.41;4973129;28;20034;-66
2022/08/29 06:22:50;;;;;;;7.83;3.53;;;;;;;22.82;43.83;102188.44;4969166;28;20704;-67
2022/08/29 06:25:15;;;;;;;6.45;3.00;;;;;;;22.85;43.88;102187.34;4971261;28;20300;-68
2022/08/29 06:27:41;;;;;;;6.75;3.13;;;;;;;22.84;44.15;102180.34;4979706;28;20434;-67
2022/08/29 06:30:06;;;;;;;6.97;3.03;;;;;;;22.84;44.15;102175.03;4974301;28;20657;-69
2022/08/29 06:32:32;;;;;;;6.57;3.00;;;;;;;22.87;43.95;102185.41;4976186;28;20276;-70
2022/08/29 06:34:57;;;;;;;8.07;3.53;;;;;;;22.85;44.38;102186.53;4979854;28;20552;-67
2022/08/29 06:37:22;;;;;;;6.95;2.95;;;;;;;22.86;44.15;102190.84;4972910;28;20084;-66
2022/08/29 06:39:47;;;;;;;6.33;3.20;;;;;;;22.88;44.12;102194.25;4976004;28;20172;-67
2022/08/29 06:42:13;;;;;;;6.13;2.90;;;;;;;22.88;44.40;102188.94;4972624;28;20729;-67
2022/08/29 06:44:38;;;;;;;8.05;2.92;;;;;;;22.89;44.25;102198.59;4977750;28;20275;-68
2022/08/29 06:47:03;;;;;;;6.75;2.72;;;;;;;22.88;44.31;102191.59;4978358;28;20034;-67
2022/08/29 06:49:30;;;;;;;7.13;3.08;;;;;;;22.87;44.43;102188.06;4974226;28;20122;-66
2022/08/29 06:51:56;;;;;;;5.63;3.38;;;;;;;22.91;44.44;102202.81;4978664;28;20034;-67
2022/08/29 06:54:23;;;;;;;6.23;3.00;;;;;;;22.94;44.04;102197.25;4972402;28;20637;-66
2022/08/29 06:56:49;;;;;;;6.43;2.83;;;;;;;22.99;44.33;102194.22;4976758;28;20138;-67
2022/08/29 06:59:15;;;;;;;5.00;2.20;;;;;;;23.03;44.17;102194.81;4976635;28;20093;-66
2022/08/29 07:01:42;;;;;;;5.50;2.58;;;;;;;23.05;44.12;102190.22;4977577;28;20673;-66
2022/08/29 07:04:08;;;;;;;5.70;2.50;;;;;;;23.08;43.92;102195.31;4977217;28;20459;-68
2022/08/29 07:06:35;;;;;;;6.78;3.05;;;;;;;23.09;43.71;102195.19;4974044;28;20077;-66
2022/08/29 07:09:01;;;;;;;7.10;2.90;;;;;;;23.10;43.63;102202.19;4975940;28;20038;-69
2022/08/29 07:11:28;;;;;;;8.25;3.40;;;;;;;23.13;43.92;102193.97;4977142;28;20517;-68
2022/08/29 07:14:00;;;;;;;6.97;2.67;;;;;;;23.15;43.81;102188.53;4976640;28;20030;-65
2022/08/29 07:16:27;;;;;;;5.43;2.67;;;;;;;23.16;43.83;102187.53;4972302;28;20034;-66
2022/08/29 07:18:52;;;;;;;6.60;3.20;;;;;;;23.16;43.38;102183.09;4974721;28;20522;-68
2022/08/29 07:21:20;;;;;;;5.53;2.70;;;;;;;23.23;43.48;102187.91;4966876;28;20081;-66
2022/08/29 07:23:45;;;;;;;6.47;2.83;;;;;;;23.25;43.38;102185.97;4971190;28;20393;-73
2022/08/29 07:26:13;;;;;;;6.90;2.70;;;;;;;23.22;43.48;102187.03;4970604;28;20467;-73
2022/08/29 07:28:39;;;;;;;6.85;2.90;;;;;;;23.25;43.61;102184.13;4971096;28;20291;-74
2022/08/29 07:31:05;;;;;;;5.97;2.67;;;;;;;23.25;43.62;102185.97;4972612;28;20050;-73
2022/08/29 07:33:30;;;;;;;6.50;2.65;;;;;;;23.30;43.29;102183.75;4991525;28;20031;-74
2022/08/29 07:35:56;;;;;;;6.80;2.75;;;;;;;23.39;43.03;102179.50;4979314;28;20034;-73
2022/08/29 07:38:22;;;;;;;6.82;2.72;;;;;;;23.47;43.05;102182.38;4974187;28;20117;-74
2022/08/29 07:40:47;;;;;;;6.72;2.78;;;;;;;23.54;42.93;102173.75;4975434;28;20156;-74
2022/08/29 07:43:12;;;;;;;6.43;2.93;;;;;;;23.62;42.76;102166.94;4970492;28;20387;-72
2022/08/29 07:45:38;;;;;;;6.35;2.67;;;;;;;23.66;42.05;102173.69;4976644;28;20267;-71
2022/08/29 07:48:04;;;;;;;6.60;3.00;;;;;;;23.65;42.42;102179.97;4980233;28;20057;-72
2022/08/29 07:50:30;;;;;;;8.25;2.78;;;;;;;23.58;42.35;102170.84;4976699;28;20070;-77
2022/08/29 07:52:55;;;;;;;5.97;2.63;;;;;;;23.68;42.25;102179.72;4977279;28;20034;-74
2022/08/29 07:55:20;;;;;;;5.33;2.50;;;;;;;23.73;42.19;102189.00;4980014;28;20058;-74
2022/08/29 07:57:47;;;;;;;6.07;2.85;;;;;;;23.79;41.65;102187.63;4975062;28;20743;-78
2022/08/29 08:00:13;;;;;;;5.95;2.25;;;;;;;23.81;41.78;102182.19;4976537;28;20034;-77
2022/08/29 08:02:38;;;;;;;6.05;2.55;;;;;;;23.88;42.03;102186.06;4977173;28;20018;-76
2022/08/29 08:05:03;;;;;;;5.13;2.58;;;;;;;23.88;41.54;102180.72;4975048;28;20057;-74
2022/08/29 08:07:31;;;;;;;5.40;2.55;;;;;;;23.89;41.69;102182.41;4975068;28;20093;-74
2022/08/29 08:09:57;;;;;;;5.75;2.55;;;;;;;23.91;41.58;102183.13;4989016;28;20436;-75
2022/08/29 08:12:25;;;;;;;6.10;2.60;;;;;;;23.90;41.13;102181.44;4976823;28;20037;-73
2022/08/29 08:14:50;;;;;;;5.22;2.25;;;;;;;23.92;41.35;102175.97;4973000;28;20038;-75
2022/08/29 08:17:15;;;;;;;6.50;2.33;;;;;;;23.94;41.12;102174.88;4982174;28;20031;-72
2022/08/29 08:19:41;;;;;;;7.43;2.37;;;;;;;23.95;41.11;102176.56;4970654;28;20031;-76
2022/08/29 08:22:07;;;;;;;6.07;2.33;;;;;;;23.99;41.17;102182.44;4977739;28;20269;-77
2022/08/29 08:24:32;;;;;;;5.95;2.30;;;;;;;24.01;41.30;102173.38;4973199;28;20037;-74
2022/08/29 08:26:57;;;;;;;5.87;2.33;;;;;;;24.06;40.77;102180.97;4976734;28;20030;-75
2022/08/29 08:29:22;;;;;;;4.80;2.43;;;;;;;24.09;41.38;102181.53;4978332;28;20307;-78
2022/08/29 08:31:49;;;;;;;6.13;2.60;;;;;;;24.12;40.91;102175.13;4967227;28;20280;-76
2022/08/29 08:34:15;;;;;;;5.43;2.38;;;;;;;24.17;40.86;102175.56;4970825;28;20613;-81
2022/08/29 08:36:43;;;;;;;5.72;2.50;;;;;;;24.22;40.47;102186.66;4977725;28;20027;-80
2022/08/29 08:39:09;;;;;;;5.75;2.38;;;;;;;24.27;40.42;102181.78;4971029;28;20038;-78
2022/08/29 08:41:54;;;;;;;5.90;2.50;;;;;;;24.28;40.82;102179.97;4976470;28;20165;-74
2022/08/29 08:44:25;;;;;;;6.38;2.15;;;;;;;24.32;41.00;102180.53;4981288;28;20533;-74
2022/08/29 08:46:57;;;;;;;5.32;2.40;;;;;;;24.26;40.63;102168.59;4977419;28;20038;-72
2022/08/29 08:49:39;;;;;;;5.10;2.50;;;;;;;24.28;41.06;102163.97;4962820;28;20434;-75
2022/08/29 08:52:11;;;;;;;5.55;2.40;;;;;;;24.26;40.67;102171.25;4964181;28;20038;-76
2022/08/29 08:55:00;;;;;;;5.63;2.40;;;;;;;24.24;40.86;102176.72;4967095;28;20061;-75
2022/08/29 08:57:35;;;;;;;5.20;2.40;;;;;;;24.31;40.84;102174.38;4975540;28;20038;-73
2022/08/29 09:00:01;;;;;;;5.40;2.33;;;;;;;24.33;40.61;102187.56;4981080;28;20066;-77
2022/08/29 09:02:44;;;;;;;5.78;2.47;;;;;;;24.36;40.74;102181.97;4982121;28;20390;-71
2022/08/29 09:05:58;;;;;;;5.40;2.30;;;;;;;24.37;40.20;102179.16;4979849;28;20113;-74
2022/08/29 09:08:42;;;;;;;4.88;2.20;;;;;;;24.39;40.24;102179.88;4955542;28;20062;-74
2022/08/29 09:11:15;;;;;;;;;;;;;;;24.37;40.62;102179.16;4977628;28;20030;-78
2022/08/29 09:14:04;;;;;;;4.88;2.10;;;;;;;24.42;40.75;102186.75;4976548;28;20048;-75
2022/08/29 09:16:34;;;;;;;5.40;2.42;;;;;;;24.41;40.49;102185.88;4976177;28;20121;-78
2022/08/29 09:19:04;;;;;;;5.85;2.58;;;;;;;24.44;39.94;102188.28;4981480;28;20026;-76
2022/08/29 09:21:37;;;;;;;5.93;2.50;;;;;;;24.48;40.12;102190.69;4969288;28;20632;-77
2022/08/29 09:24:09;;;;;;;5.80;2.30;;;;;;;24.48;39.72;102194.19;4974949;28;20398;-77
2022/08/29 09:26:34;;;;;;;5.55;2.55;;;;;;;24.44;40.16;102187.44;4973844;28;20049;-75
2022/08/29 09:28:59;;;;;;;6.82;2.40;;;;;;;24.41;39.95;102193.03;4974394;28;20059;-74
2022/08/29 09:31:28;;;;;;;4.68;2.10;;;;;;;24.47;40.25;102197.84;4977679;28;20119;-74
2022/08/29 09:33:55;;;;;;;6.20;2.55;;;;;;;24.44;39.74;102200.78;4964085;28;20031;-74
2022/08/29 09:36:42;;;;;;;7.55;2.63;;;;;;;24.46;39.78;102201.47;4968490;28;20043;-74
2022/08/29 09:39:28;;;;;;;6.78;2.50;;;;;;;24.39;39.88;102208.34;4962513;28;20494;-76
2022/08/29 09:42:12;;;;;;;5.25;2.20;;;;;;;24.34;39.35;102194.53;4970004;28;20034;-74
2022/08/29 09:44:40;;;;;;;5.68;2.55;;;;;;;24.31;40.16;102187.69;4967642;28;20031;-74
2022/08/29 09:47:10;;;;;;;8.18;2.40;;;;;;;24.36;39.62;102196.13;4973371;28;20042;-74
2022/08/29 09:49:38;;;;;;;5.78;2.45;;;;;;;24.32;39.92;102192.00;4977737;28;20031;-75
2022/08/29 09:52:15;;;;;;;5.55;2.60;;;;;;;24.36;40.19;102193.44;4977224;28;20133;-77
2022/08/29 09:54:42;;;;;;;4.88;2.42;;;;;;;24.32;39.85;102185.84;4968629;28;20046;-74
2022/08/29 09:57:07;;;;;;;5.15;2.50;;;;;;;24.38;39.88;102188.00;4979423;28;20080;-74
2022/08/29 09:59:36;;;;;;;5.63;2.10;;;;;;;24.35;40.21;102183.75;4963917;28;20030;-74
2022/08/29 10:02:28;;;;;;;5.60;2.25;;;;;;;24.38;39.76;102186.16;4972424;28;20034;-73
2022/08/29 10:05:05;;;;;;;4.68;2.38;;;;;;;24.25;40.28;102167.75;4967763;28;20042;-77
2022/08/29 10:07:45;;;;;;;8.07;2.40;;;;;;;24.33;40.29;102180.41;4971658;28;20370;-77
2022/08/29 10:10:20;;;;;;;5.18;2.38;;;;;;;24.38;39.83;102190.66;4971229;28;20098;-77
2022/08/29 10:13:18;;;;;;;5.03;2.10;;;;;;;24.37;39.50;102194.28;4972036;28;20096;-75
2022/08/29 10:15:51;;;;;;;5.00;2.47;;;;;;;24.39;39.63;102198.50;4966355;28;20475;-73
2022/08/29 10:18:34;;;;;;;5.10;2.30;;;;;;;24.38;39.70;102188.81;4977494;28;20038;-74
2022/08/29 10:21:24;;;;;;;5.93;2.33;;;;;;;24.40;39.81;102196.69;4971090;28;20035;-73
2022/08/29 10:24:11;;;;;;;5.15;2.60;;;;;;;24.39;39.78;102203.00;4968134;28;20034;-73
2022/08/29 10:27:02;;;;;;;4.03;2.10;;;;;;;24.35;39.66;102194.41;4976402;28;20470;-73
2022/08/29 10:29:46;;;;;;;5.38;2.28;;;;;;;24.28;40.15;102190.63;4968676;28;20047;-74
2022/08/29 10:32:24;;;;;;;5.40;2.40;;;;;;;24.29;40.56;102183.44;4968193;28;20023;-74
2022/08/29 10:35:29;;;;;;;5.60;2.03;;;;;;;24.24;40.26;102181.19;4968960;28;20387;-74
2022/08/29 10:38:01;;;;;;;6.63;2.42;;;;;;;24.21;40.03;102168.13;4975451;28;20065;-75
2022/08/29 10:40:53;;;;;;;5.68;2.40;;;;;;;24.24;40.72;102178.53;4972919;28;20755;-74
2022/08/29 10:43:34;;;;;;;7.60;2.33;;;;;;;24.30;40.16;102185.97;4970247;28;20053;-76
2022/08/29 10:46:08;;;;;;;6.88;2.28;;;;;;;24.32;40.03;102169.88;4971159;28;20031;-71
2022/08/29 10:48:51;;;;;;;;;;;;;;;24.31;40.54;102161.03;4972210;28;20546;-73
2022/08/29 10:51:24;;;;;;;5.43;2.53;;;;;;;24.38;40.15;102166.69;4971882;28;19921;-75
2022/08/29 10:54:02;;;;;;;7.32;2.35;;;;;;;24.39;40.03;102171.88;4971137;28;20357;-73
2022/08/29 10:56:37;;;;;;;5.80;2.58;;;;;;;24.43;39.80;102167.97;4973125;28;20026;-75
2022/08/29 10:59:11;;;;;;;4.53;2.35;;;;;;;24.45;40.06;102152.69;4975377;28;20128;-73
2022/08/29 11:01:50;;;;;;;6.78;2.88;;;;;;;24.47;39.79;102152.53;4972475;28;20097;-76
2022/08/29 11:04:33;;;;;;;6.15;2.30;;;;;;;24.48;40.17;102151.53;4968700;28;20040;-71
2022/08/29 11:07:05;;;;;;;5.03;2.45;;;;;;;24.47;40.10;102149.03;4969514;28;20041;-75
2022/08/29 11:09:42;;;;;;;4.90;2.10;;;;;;;24.49;39.91;102141.75;4975823;28;20043;-72
2022/08/29 11:12:33;;;;;;;7.05;2.35;;;;;;;24.50;39.92;102146.09;4977004;28;20061;-74
2022/08/29 11:15:04;;;;;;;5.15;2.22;;;;;;;24.46;40.36;102140.19;4956942;28;20146;-70
2022/08/29 11:17:40;;;;;;;5.88;2.63;;;;;;;24.49;40.20;102139.91;4976395;28;20065;-73
2022/08/29 11:20:12;;;;;;;5.88;2.22;;;;;;;24.49;39.95;102141.75;4973236;28;20035;-73
2022/08/29 11:22:45;;;;;;;8.43;2.72;;;;;;;24.49;39.84;102142.59;4973477;28;20846;-68
2022/08/29 11:25:19;;;;;;;5.57;2.43;;;;;;;24.50;39.98;102127.44;4975144;28;20696;-70
2022/08/29 11:28:02;;;;;;;;;;;;;;;24.51;39.79;102126.47;4975122;28;20148;-72
2022/08/29 11:30:40;;;;;;;4.38;2.03;;;;;;;24.48;39.96;102116.06;4975339;28;19980;-74
2022/08/29 11:33:17;;;;;;;5.00;2.05;;;;;;;24.48;40.33;102116.06;4976691;28;20034;-75
2022/08/29 11:35:49;;;;;;;5.07;2.00;;;;;;;24.43;40.07;102114.69;4980029;28;20050;-75